Time;durP1;ratioP1;P1;durP2;ratioP2;P2;SDS_P1;SDS_P2;PMS_P1;PMS_P2;Temp;Humidity;BMP_temperature;BMP_pressure;BME280_temperature;BME280_humidity;BME280_pressure;Samples;Min_cycle;Max_cycle;Signal;HPM_P1;HPM_P2
2021/05/10 00:01:23;;;;;;;1.95;1.75;;;;;;;13.23;80.20;101922.06;5035977;28;20035;-76
2021/05/10 00:04:09;;;;;;;3.80;1.92;;;;;;;13.17;79.75;101912.47;5036287;28;20025;-74
2021/05/10 00:06:55;;;;;;;3.88;1.65;;;;;;;13.11;80.40;101920.38;5046505;28;20021;-74
2021/05/10 00:09:40;;;;;;;1.42;1.33;;;;;;;13.11;80.39;101914.28;5048035;28;20482;-74
2021/05/10 00:12:26;;;;;;;3.78;1.50;;;;;;;13.22;79.50;101918.53;5047525;28;20106;-74
2021/05/10 00:15:13;;;;;;;2.97;1.70;;;;;;;13.21;78.99;101915.91;5056802;28;20090;-74
2021/05/10 00:18:02;;;;;;;2.47;1.83;;;;;;;13.21;79.19;101910.66;5054585;28;20091;-74
2021/05/10 00:20:48;;;;;;;2.42;1.80;;;;;;;13.44;77.77;101914.84;5054578;28;20040;-74
2021/05/10 00:23:34;;;;;;;3.00;1.80;;;;;;;13.20;78.78;101927.34;5042124;28;20028;-74
2021/05/10 00:26:20;;;;;;;6.88;3.17;;;;;;;13.11;80.47;101917.75;5055530;28;20445;-74
2021/05/10 00:29:06;;;;;;;11.30;8.52;;;;;;;13.25;79.36;101923.78;5055021;28;20029;-74
2021/05/10 00:31:51;;;;;;;4.40;1.70;;;;;;;13.40;77.88;101922.75;5054859;28;20366;-75
2021/05/10 00:34:37;;;;;;;3.13;1.80;;;;;;;13.52;76.91;101920.91;5055274;28;20527;-74
2021/05/10 00:37:23;;;;;;;3.28;1.60;;;;;;;13.49;77.44;101915.66;5055468;28;20500;-75
2021/05/10 00:40:11;;;;;;;2.35;1.50;;;;;;;13.50;77.71;101908.59;5041546;28;20366;-74
2021/05/10 00:42:57;;;;;;;4.63;1.75;;;;;;;13.60;76.67;101913.78;5055577;28;20036;-74
2021/05/10 00:45:43;;;;;;;2.10;1.67;;;;;;;13.29;78.74;101912.34;5055004;28;20028;-74
2021/05/10 00:48:29;;;;;;;3.00;1.80;;;;;;;13.25;79.97;101907.13;5038497;28;20079;-74
2021/05/10 00:51:15;;;;;;;3.67;1.88;;;;;;;13.28;80.05;101896.56;5054330;28;20032;-74
2021/05/10 00:54:01;;;;;;;3.50;1.52;;;;;;;13.28;79.84;101902.72;5053296;28;20033;-75
2021/05/10 00:56:47;;;;;;;2.33;1.70;;;;;;;13.73;77.94;101899.59;5054721;28;20029;-74
2021/05/10 00:59:33;;;;;;;2.40;1.95;;;;;;;13.26;80.38;101901.84;5039758;28;20029;-75
2021/05/10 01:02:19;;;;;;;3.13;1.60;;;;;;;13.31;81.26;101904.44;5039759;28;20464;-75
2021/05/10 01:05:06;;;;;;;3.08;1.90;;;;;;;13.27;82.37;101900.94;5040964;28;20048;-75
2021/05/10 01:07:52;;;;;;;2.30;1.80;;;;;;;13.27;82.15;101900.09;5054998;28;20057;-74
2021/05/10 01:10:38;;;;;;;2.35;1.67;;;;;;;13.13;83.69;101897.59;5055003;28;20072;-74
2021/05/10 01:13:24;;;;;;;3.20;1.70;;;;;;;13.35;82.09;101903.53;5055316;28;20354;-74
2021/05/10 01:16:10;;;;;;;3.55;1.80;;;;;;;13.24;83.89;101897.47;5040439;28;20461;-75
2021/05/10 01:18:56;;;;;;;4.05;1.40;;;;;;;13.11;84.52;101893.22;5055240;28;20029;-75
2021/05/10 01:21:44;;;;;;;3.97;1.60;;;;;;;13.21;84.28;101890.50;5054714;28;20028;-75
2021/05/10 01:24:30;;;;;;;2.28;1.75;;;;;;;13.19;84.97;101897.50;5054620;28;20033;-74
2021/05/10 01:27:16;;;;;;;2.60;1.70;;;;;;;13.00;86.77;101888.06;5054598;28;20036;-74
2021/05/10 01:30:06;;;;;;;1.73;1.60;;;;;;;13.03;85.93;101882.75;5054625;28;20412;-74
2021/05/10 01:32:55;;;;;;;4.47;1.77;;;;;;;13.18;85.70;101885.25;5054472;28;20040;-75
2021/05/10 01:35:46;;;;;;;2.40;1.50;;;;;;;13.16;85.93;101896.69;5055129;28;20040;-76
2021/05/10 01:38:32;;;;;;;1.83;1.60;;;;;;;13.12;86.16;101894.97;5053913;28;20373;-75
2021/05/10 01:41:18;;;;;;;2.30;1.67;;;;;;;13.17;86.80;101887.88;5041302;28;20465;-74
2021/05/10 01:44:04;;;;;;;7.68;1.95;;;;;;;12.94;87.58;101895.09;5058996;28;20025;-74
2021/05/10 01:46:50;;;;;;;2.70;1.75;;;;;;;12.96;88.07;101891.56;5044123;28;20446;-74
2021/05/10 01:49:36;;;;;;;3.72;1.73;;;;;;;12.77;90.53;101891.72;5058906;28;20029;-75
2021/05/10 01:52:21;;;;;;;3.58;1.60;;;;;;;12.96;90.26;101891.56;5058980;28;20477;-74
2021/05/10 01:55:08;;;;;;;1.70;1.60;;;;;;;12.69;91.79;101893.53;5057382;28;20176;-75
2021/05/10 01:57:56;;;;;;;2.90;1.80;;;;;;;12.72;93.74;101897.03;5057631;28;20473;-75
2021/05/10 02:00:44;;;;;;;3.35;1.75;;;;;;;12.83;92.84;101892.53;5058383;28;20036;-74
2021/05/10 02:03:30;;;;;;;2.05;1.73;;;;;;;13.07;91.38;101897.63;5029741;28;20053;-75
2021/05/10 02:06:16;;;;;;;2.85;1.65;;;;;;;13.26;89.79;101907.09;5057849;28;20025;-75
2021/05/10 02:09:03;;;;;;;3.17;1.80;;;;;;;12.99;91.48;101903.84;5057783;28;20029;-74
2021/05/10 02:11:49;;;;;;;1.90;1.75;;;;;;;13.09;91.04;101898.50;5057547;28;20057;-75
2021/05/10 02:14:35;;;;;;;2.28;1.77;;;;;;;12.86;92.11;101897.78;5043534;28;20063;-75
2021/05/10 02:17:20;;;;;;;5.03;1.83;;;;;;;12.98;90.87;101902.97;5057779;28;20449;-74
2021/05/10 02:20:08;;;;;;;2.42;1.65;;;;;;;13.00;90.88;101900.34;5058442;28;20107;-74
2021/05/10 02:22:55;;;;;;;3.42;1.52;;;;;;;13.11;89.24;101901.13;5058218;28;20025;-74
2021/05/10 02:25:43;;;;;;;2.05;1.50;;;;;;;13.10;89.00;101902.00;5056912;28;20040;-75
2021/05/10 02:28:30;;;;;;;3.25;1.80;;;;;;;13.05;89.96;101909.03;5057594;28;20029;-74
2021/05/10 02:31:16;;;;;;;4.65;1.70;;;;;;;13.16;88.00;101915.97;5057350;28;20021;-74
2021/05/10 02:34:02;;;;;;;2.92;2.05;;;;;;;13.22;88.83;101913.28;5043379;28;20108;-75
2021/05/10 02:36:48;;;;;;;2.53;1.70;;;;;;;13.11;89.25;101914.28;5057797;28;20044;-74
2021/05/10 02:39:34;;;;;;;2.00;1.80;;;;;;;13.12;89.05;101916.00;5043262;28;20025;-75
2021/05/10 02:42:20;;;;;;;2.03;1.65;;;;;;;12.86;90.23;101908.28;5042610;28;20036;-74
2021/05/10 02:45:07;;;;;;;3.78;2.20;;;;;;;12.92;90.67;101900.38;5057777;28;20090;-75
2021/05/10 02:47:53;;;;;;;3.58;1.77;;;;;;;12.68;91.81;101905.81;5057903;28;20523;-74
2021/05/10 02:50:39;;;;;;;2.72;1.63;;;;;;;12.86;89.91;101903.03;5057701;28;20033;-75
2021/05/10 02:53:24;;;;;;;2.58;2.00;;;;;;;13.23;88.34;101915.00;5056562;28;20035;-75
2021/05/10 02:56:10;;;;;;;5.70;2.10;;;;;;;13.27;88.06;101908.84;5042314;28;20342;-74
2021/05/10 02:58:57;;;;;;;2.45;1.80;;;;;;;12.94;89.24;101905.63;5056653;28;20029;-75
2021/05/10 03:01:42;;;;;;;3.40;1.90;;;;;;;12.64;92.18;101914.63;5057386;28;20017;-75
2021/05/10 03:04:28;;;;;;;2.78;2.00;;;;;;;12.85;91.89;101910.94;5057070;28;20029;-74
2021/05/10 03:07:14;;;;;;;3.72;1.80;;;;;;;12.99;91.65;101909.97;5057336;28;20357;-74
2021/05/10 03:10:01;;;;;;;2.38;2.05;;;;;;;12.81;92.24;101918.00;5056633;28;20024;-73
2021/05/10 03:12:47;;;;;;;4.28;2.28;;;;;;;12.76;92.68;101929.41;5041354;28;20033;-74
2021/05/10 03:15:33;;;;;;;5.45;2.33;;;;;;;12.81;92.77;101920.63;5042555;28;20029;-74
2021/05/10 03:18:18;;;;;;;4.28;2.00;;;;;;;12.68;93.11;101924.22;5055962;28;20032;-74
2021/05/10 03:21:04;;;;;;;2.42;1.90;;;;;;;13.07;91.38;101921.31;5056696;28;20393;-74
2021/05/10 03:23:50;;;;;;;2.78;2.00;;;;;;;12.86;91.56;101924.06;5057262;28;20025;-74
2021/05/10 03:26:37;;;;;;;3.33;2.30;;;;;;;12.81;92.71;101930.25;5056970;28;20021;-75
2021/05/10 03:29:23;;;;;;;1.98;1.77;;;;;;;12.86;92.00;101923.22;5056492;28;20025;-75
2021/05/10 03:32:09;;;;;;;3.72;1.98;;;;;;;13.03;91.03;101921.34;5056210;28;20446;-75
2021/05/10 03:34:54;;;;;;;4.95;2.08;;;;;;;13.09;90.71;101929.19;5056446;28;20468;-76
2021/05/10 03:37:41;;;;;;;3.28;1.88;;;;;;;13.22;89.85;101926.44;5055898;28;20029;-75
2021/05/10 03:40:27;;;;;;;2.90;2.17;;;;;;;13.17;90.33;101932.63;5041469;28;20374;-75
2021/05/10 03:43:13;;;;;;;5.05;2.25;;;;;;;13.24;88.99;101931.69;5056277;28;20025;-75
2021/05/10 03:45:58;;;;;;;2.00;1.80;;;;;;;13.10;89.33;101931.81;5056641;28;20075;-74
2021/05/10 03:48:44;;;;;;;2.22;1.90;;;;;;;13.41;87.45;101935.91;5055258;28;20039;-75
2021/05/10 03:51:30;;;;;;;4.18;2.20;;;;;;;13.29;87.86;101930.78;5056330;28;20021;-76
2021/05/10 03:54:16;;;;;;;4.13;2.03;;;;;;;13.11;89.12;101927.44;5041273;28;20025;-76
2021/05/10 03:57:02;;;;;;;5.47;2.10;;;;;;;13.37;87.56;101922.78;5055677;28;20417;-76
2021/05/10 03:59:48;;;;;;;2.53;2.10;;;;;;;13.34;87.91;101928.97;5041604;28;20060;-76
2021/05/10 04:02:35;;;;;;;24.00;4.05;;;;;;;13.57;87.58;101921.72;5056118;28;20369;-76
2021/05/10 04:14:06;;;;;;;5.30;2.40;;;;;;;13.33;84.58;101939.50;5055210;28;20032;-76
2021/05/10 04:16:52;;;;;;;4.93;2.78;;;;;;;13.37;85.08;101930.69;5056437;28;20033;-75
2021/05/10 04:19:37;;;;;;;5.30;2.50;;;;;;;13.77;81.57;101935.53;5055803;28;20461;-75
2021/05/10 04:22:23;;;;;;;4.72;2.35;;;;;;;13.52;81.06;101933.19;5054727;28;20405;-75
2021/05/10 04:25:10;;;;;;;3.35;2.00;;;;;;;14.27;77.58;101942.88;5055166;28;20231;-76
2021/05/10 04:27:55;;;;;;;6.63;2.28;;;;;;;13.90;77.98;101945.03;5041093;28;20108;-75
2021/05/10 04:30:42;;;;;;;4.85;2.70;;;;;;;13.97;77.98;101952.00;5040523;28;20029;-76
2021/05/10 04:33:33;;;;;;;4.40;2.45;;;;;;;14.03;76.94;101957.16;5040851;28;20028;-75
2021/05/10 04:36:19;;;;;;;3.53;1.92;;;;;;;14.53;75.40;101954.81;5055507;28;20029;-75
2021/05/10 04:39:04;;;;;;;35.38;3.70;;;;;;;14.36;75.52;101962.06;5055012;28;20025;-77
2021/05/10 04:41:50;;;;;;;7.53;2.53;;;;;;;14.83;74.45;101956.09;5040500;28;20028;-75
2021/05/10 04:44:36;;;;;;;4.57;2.78;;;;;;;14.68;72.77;101951.94;5054887;28;20037;-75
2021/05/10 04:47:22;;;;;;;3.05;2.17;;;;;;;14.68;73.51;101951.06;5054277;28;20440;-75
2021/05/10 04:50:10;;;;;;;5.43;2.65;;;;;;;14.91;70.98;101959.50;5040953;28;20037;-75
2021/05/10 04:52:56;;;;;;;2.30;1.95;;;;;;;14.85;72.30;101951.69;5054325;28;20373;-76
2021/05/10 04:55:42;;;;;;;6.22;2.40;;;;;;;14.95;72.58;101949.78;5055762;28;20116;-75
2021/05/10 04:58:28;;;;;;;2.72;2.13;;;;;;;15.06;70.28;101955.78;5059550;28;20028;-75
2021/05/10 05:01:14;;;;;;;6.55;2.38;;;;;;;15.07;69.48;101957.50;5065806;28;20029;-75
2021/05/10 05:04:00;;;;;;;9.13;2.20;;;;;;;15.04;70.15;101954.91;5063912;28;20040;-76
2021/05/10 05:06:46;;;;;;;5.65;2.20;;;;;;;15.10;69.05;101954.81;5054244;28;20040;-76
2021/05/10 05:09:31;;;;;;;4.90;1.95;;;;;;;15.00;68.61;101950.56;5059758;28;20017;-75
2021/05/10 05:12:17;;;;;;;3.08;2.38;;;;;;;15.55;67.15;101956.72;5057528;28;20053;-75
2021/05/10 05:15:05;;;;;;;5.18;1.95;;;;;;;15.53;66.93;101947.91;5045304;28;20025;-75
2021/05/10 05:17:51;;;;;;;5.22;2.00;;;;;;;15.65;65.46;101955.63;5045751;28;20021;-75
2021/05/10 05:20:37;;;;;;;5.68;2.20;;;;;;;15.61;64.36;101952.19;5059095;28;20040;-75
2021/05/10 05:23:25;;;;;;;3.60;1.90;;;;;;;15.67;64.84;101957.34;5059328;28;20054;-75
2021/05/10 05:26:11;;;;;;;3.63;2.10;;;;;;;15.89;63.78;101949.88;5058644;28;20449;-75
2021/05/10 05:28:57;;;;;;;3.53;2.20;;;;;;;16.38;63.36;101956.78;5058040;28;20021;-74
2021/05/10 05:31:42;;;;;;;4.95;1.98;;;;;;;16.30;62.57;101963.13;5058510;28;20036;-75
2021/05/10 05:34:28;;;;;;;2.72;1.98;;;;;;;16.46;63.09;101962.81;5059601;28;20345;-75
2021/05/10 05:37:14;;;;;;;2.10;1.75;;;;;;;16.87;60.94;101957.44;5059028;28;20180;-75
2021/05/10 05:40:00;;;;;;;6.57;2.40;;;;;;;17.17;61.02;101959.38;5058438;28;20021;-75
2021/05/10 05:42:45;;;;;;;6.22;1.92;;;;;;;16.73;60.32;101967.50;5058307;28;20453;-76
2021/05/10 05:45:31;;;;;;;3.53;1.88;;;;;;;16.47;59.74;101972.47;5058175;28;20059;-75
2021/05/10 05:48:17;;;;;;;4.75;1.88;;;;;;;16.67;59.12;101972.03;5057786;28;20416;-76
2021/05/10 05:51:03;;;;;;;4.20;2.25;;;;;;;17.01;58.15;101973.88;5058155;28;20021;-75
2021/05/10 05:53:53;;;;;;;2.70;1.83;;;;;;;16.68;58.29;101968.50;5058807;28;20025;-75
2021/05/10 05:56:39;;;;;;;2.78;1.83;;;;;;;16.85;58.63;101975.16;5043463;28;20025;-75
2021/05/10 05:59:25;;;;;;;2.22;1.90;;;;;;;17.03;59.53;101971.16;5058872;28;20040;-75
2021/05/10 06:02:11;;;;;;;8.35;2.10;;;;;;;17.21;58.68;101971.63;5032497;28;20048;-74
2021/05/10 06:04:57;;;;;;;2.22;1.73;;;;;;;17.30;58.07;101973.16;5049358;28;20367;-73
2021/05/10 06:07:45;;;;;;;2.08;1.70;;;;;;;17.44;57.74;101982.53;5049710;28;20029;-73
2021/05/10 06:10:31;;;;;;;4.57;2.20;;;;;;;17.57;57.48;101981.28;5049129;28;20045;-73
2021/05/10 06:13:16;;;;;;;3.75;1.98;;;;;;;17.46;55.95;101987.78;5049349;28;20064;-73
2021/05/10 06:16:04;;;;;;;3.67;1.98;;;;;;;17.59;55.43;101991.84;5048836;28;20017;-74
2021/05/10 06:18:49;;;;;;;4.03;1.80;;;;;;;17.97;54.96;101997.03;5047494;28;20132;-74
2021/05/10 06:21:35;;;;;;;3.50;1.80;;;;;;;17.66;54.71;101993.44;5049769;28;20032;-74
2021/05/10 06:24:22;;;;;;;4.07;2.08;;;;;;;17.88;55.07;101989.31;5035839;28;20056;-74
2021/05/10 06:27:07;;;;;;;3.15;1.63;;;;;;;17.92;54.67;101983.03;5047379;28;20033;-73
2021/05/10 06:29:53;;;;;;;5.03;2.30;;;;;;;18.04;55.23;101983.53;5048803;28;20094;-73
2021/05/10 06:32:40;;;;;;;5.63;1.90;;;;;;;18.15;54.50;101980.56;5034324;28;20033;-73
2021/05/10 06:35:26;;;;;;;4.18;2.10;;;;;;;18.79;54.78;101969.81;5048158;28;20028;-73
2021/05/10 06:38:13;;;;;;;3.72;1.85;;;;;;;19.00;53.61;101975.31;5048191;28;20480;-74
2021/05/10 06:40:58;;;;;;;3.22;2.10;;;;;;;18.60;51.63;101976.59;5034941;28;20433;-73
2021/05/10 06:43:44;;;;;;;2.83;2.13;;;;;;;18.69;50.91;101969.22;5049724;28;20484;-73
2021/05/10 06:46:30;;;;;;;3.78;2.30;;;;;;;19.02;50.85;101978.78;5034392;28;20457;-73
2021/05/10 06:49:16;;;;;;;3.22;2.30;;;;;;;18.87;47.72;101970.44;5047792;28;20028;-73
2021/05/10 06:52:02;;;;;;;6.95;1.98;;;;;;;18.73;46.08;101980.66;5033634;28;20025;-74
2021/05/10 06:54:48;;;;;;;3.08;1.90;;;;;;;18.71;44.58;101982.47;5049275;28;20453;-74
2021/05/10 06:57:33;;;;;;;5.32;2.40;;;;;;;19.07;44.63;101976.00;5034219;28;20065;-74
2021/05/10 07:00:19;;;;;;;3.28;2.03;;;;;;;19.21;44.06;101974.63;5049404;28;20532;-73
2021/05/10 07:03:05;;;;;;;4.82;2.03;;;;;;;19.31;43.31;101982.31;5048248;28;20476;-73
2021/05/10 07:05:51;;;;;;;4.63;1.73;;;;;;;19.79;42.77;101972.66;5049731;28;20445;-74
2021/05/10 07:08:37;;;;;;;3.35;2.00;;;;;;;20.22;41.20;101978.19;5046168;28;20029;-73
2021/05/10 07:11:23;;;;;;;3.78;1.95;;;;;;;19.82;40.07;101977.88;5047264;28;20550;-73
2021/05/10 07:14:08;;;;;;;8.90;2.00;;;;;;;19.95;39.93;101988.03;5041458;28;20040;-74
2021/05/10 07:16:54;;;;;;;5.10;2.00;;;;;;;19.88;39.17;101978.53;5035174;28;20056;-74
2021/05/10 07:19:40;;;;;;;2.90;1.88;;;;;;;19.72;39.40;101987.97;5036120;28;20384;-74
2021/05/10 07:22:26;;;;;;;4.03;2.10;;;;;;;20.25;39.35;101992.25;5017829;28;20021;-74
2021/05/10 07:25:12;;;;;;;4.53;2.00;;;;;;;20.28;37.94;101986.81;5034100;28;20099;-74
2021/05/10 07:27:58;;;;;;;2.95;1.90;;;;;;;20.51;37.58;101980.63;5032295;28;20025;-74
2021/05/10 07:30:44;;;;;;;3.25;1.70;;;;;;;20.74;36.55;101983.28;5035935;28;20029;-73
2021/05/10 07:33:30;;;;;;;21.50;15.15;;;;;;;21.42;36.62;101973.38;5041012;28;20017;-74
2021/05/10 07:36:16;;;;;;;11.05;6.85;;;;;;;21.48;35.94;101975.78;5039286;28;20060;-74
2021/05/10 07:39:03;;;;;;;4.15;1.70;;;;;;;21.38;34.65;101977.94;5034174;28;20361;-73
2021/05/10 07:41:49;;;;;;;4.68;1.70;;;;;;;21.46;34.49;101974.97;5012206;28;20064;-75
2021/05/10 07:44:35;;;;;;;3.95;1.90;;;;;;;21.05;34.73;101979.34;5014176;28;20194;-75
2021/05/10 07:47:20;;;;;;;3.75;2.00;;;;;;;21.36;35.67;101978.94;5016231;28;20025;-74
2021/05/10 07:50:07;;;;;;;2.60;1.83;;;;;;;21.56;35.36;101979.84;5042338;28;20037;-74
2021/05/10 07:52:56;;;;;;;2.85;2.22;;;;;;;21.96;35.24;101981.69;5016486;28;20025;-73
2021/05/10 07:55:41;;;;;;;3.03;1.80;;;;;;;21.36;34.18;101973.63;5035071;28;20366;-74
2021/05/10 07:58:27;;;;;;;5.28;2.40;;;;;;;22.14;34.40;101978.22;5012481;28;20025;-73
2021/05/10 08:01:13;;;;;;;5.15;1.90;;;;;;;22.37;34.44;101978.00;5035846;28;20037;-74
2021/05/10 08:03:59;;;;;;;7.20;2.10;;;;;;;22.48;34.95;101968.59;5035218;28;20438;-75
2021/05/10 08:06:45;;;;;;;6.40;2.85;;;;;;;22.92;33.39;101970.03;5036585;28;20025;-74
2021/05/10 08:09:31;;;;;;;3.00;1.95;;;;;;;22.92;33.17;101969.16;5032118;28;20040;-76
2021/05/10 08:12:17;;;;;;;3.53;2.05;;;;;;;22.38;34.42;101985.94;5038862;28;20414;-74
2021/05/10 08:15:07;;;;;;;2.83;1.77;;;;;;;22.80;33.50;101977.75;5036134;28;20104;-76
2021/05/10 08:17:52;;;;;;;4.00;1.60;;;;;;;23.43;34.37;101970.13;5034626;28;20037;-76
2021/05/10 08:20:39;;;;;;;3.40;1.90;;;;;;;23.89;33.10;101973.09;5033605;28;20446;-75
2021/05/10 08:23:25;;;;;;;4.25;1.80;;;;;;;23.42;32.45;101969.34;5036452;28;20112;-73
2021/05/10 08:26:11;;;;;;;3.35;1.77;;;;;;;23.95;32.37;101970.16;5039703;28;20063;-73
2021/05/10 08:28:57;;;;;;;5.13;1.98;;;;;;;24.31;31.82;101970.84;5032513;28;20029;-74
2021/05/10 08:31:46;;;;;;;3.45;1.73;;;;;;;24.35;31.76;101967.91;5038842;28;20091;-75
2021/05/10 08:34:32;;;;;;;5.90;2.00;;;;;;;24.32;33.32;101980.63;4987695;28;20037;-75
2021/05/10 08:37:20;;;;;;;4.05;2.25;;;;;;;24.14;31.48;101982.47;4992435;28;20035;-74
2021/05/10 08:40:09;;;;;;;2.30;1.70;;;;;;;23.98;31.33;101970.00;4987961;28;20468;-75
2021/05/10 08:42:55;;;;;;;3.13;1.95;;;;;;;23.94;31.40;101968.44;4992073;28;20048;-73
2021/05/10 08:45:41;;;;;;;2.22;1.80;;;;;;;24.38;30.58;101966.88;4990060;28;20025;-72
2021/05/10 08:48:27;;;;;;;1.98;1.75;;;;;;;24.07;30.45;101959.63;4978022;28;20469;-73
2021/05/10 08:51:14;;;;;;;2.55;1.80;;;;;;;24.59;30.00;101953.16;4992063;28;20037;-73
2021/05/10 08:54:00;;;;;;;4.13;1.95;;;;;;;24.53;30.08;101953.50;4992890;28;20382;-73
2021/05/10 08:56:46;;;;;;;2.33;1.88;;;;;;;24.71;30.67;101954.34;4989360;28;20124;-73
2021/05/10 08:59:32;;;;;;;2.50;1.85;;;;;;;24.26;30.49;101965.72;4993581;28;20060;-74
2021/05/10 09:02:32;;;;;;;2.08;1.73;;;;;;;24.51;31.23;101955.41;5014582;28;20053;-75
2021/05/10 09:05:20;;;;;;;6.53;2.00;;;;;;;24.17;30.64;101949.28;5017275;28;20028;-74
2021/05/10 09:08:07;;;;;;;6.65;2.45;;;;;;;24.51;30.76;101941.16;5017611;28;20349;-73
2021/05/10 09:11:07;;;;;;;5.63;2.60;;;;;;;24.58;30.57;101935.34;5025000;28;20394;-73
2021/05/10 09:13:55;;;;;;;10.57;1.98;;;;;;;24.35;30.86;101940.28;5052421;28;20106;-73
2021/05/10 09:16:54;;;;;;;5.55;1.98;;;;;;;24.38;30.12;101932.91;5038717;28;20029;-73
2021/05/10 09:19:41;;;;;;;2.20;1.70;;;;;;;24.41;30.12;101923.84;5053103;28;20035;-73
2021/05/10 09:22:45;;;;;;;7.07;2.20;;;;;;;24.27;30.09;101927.28;5053141;28;20029;-73
2021/05/10 09:25:31;;;;;;;3.85;2.08;;;;;;;24.52;30.08;101924.13;5053003;28;20036;-73
2021/05/10 09:28:18;;;;;;;3.53;1.95;;;;;;;24.82;29.97;101933.13;5053121;28;20116;-74
2021/05/10 09:31:12;;;;;;;4.15;2.10;;;;;;;23.79;30.07;101929.88;5053258;28;20055;-74
2021/05/10 09:33:58;;;;;;;4.10;1.75;;;;;;;23.81;30.40;101919.97;5053026;28;20029;-77
2021/05/10 09:36:44;;;;;;;5.07;2.45;;;;;;;24.30;30.45;101920.91;5025996;28;20071;-76
2021/05/10 09:39:33;;;;;;;3.55;1.90;;;;;;;23.61;31.33;101925.50;5053261;28;20021;-76
2021/05/10 09:42:19;;;;;;;3.10;1.95;;;;;;;23.44;31.17;101915.66;5051895;28;20468;-75
2021/05/10 09:45:06;;;;;;;2.58;1.88;;;;;;;23.90;30.89;101914.13;5052799;28;20021;-75
2021/05/10 09:48:03;;;;;;;4.95;2.00;;;;;;;24.37;31.27;101909.75;5051595;28;20420;-75
2021/05/10 09:50:52;;;;;;;3.55;1.88;;;;;;;24.42;31.46;101904.13;5052976;28;20028;-76
2021/05/10 09:53:43;;;;;;;5.07;2.10;;;;;;;24.36;31.30;101910.72;5052031;28;20025;-76
2021/05/10 09:56:31;;;;;;;3.75;1.90;;;;;;;24.11;31.47;101902.28;5053040;28;20025;-75
2021/05/10 09:59:18;;;;;;;3.92;1.75;;;;;;;23.76;31.74;101900.63;5052954;28;20060;-76
2021/05/10 10:02:10;;;;;;;5.00;1.60;;;;;;;23.95;32.19;101898.69;5053081;28;20505;-76
2021/05/10 10:04:56;;;;;;;4.28;1.90;;;;;;;23.18;32.53;101892.03;5042135;28;20029;-76
2021/05/10 10:07:42;;;;;;;2.03;1.67;;;;;;;23.43;33.16;101889.03;5056280;28;20090;-76
2021/05/10 10:10:28;;;;;;;4.20;1.85;;;;;;;23.58;32.70;101882.00;5056439;28;20067;-76
2021/05/10 10:13:15;;;;;;;4.47;2.00;;;;;;;24.09;33.16;101892.59;5056147;28;20037;-77
2021/05/10 10:16:03;;;;;;;4.68;1.90;;;;;;;23.65;32.86;101881.59;5056457;28;20363;-76
2021/05/10 10:18:50;;;;;;;3.67;1.90;;;;;;;23.79;33.04;101868.31;5056289;28;20087;-76
2021/05/10 10:21:39;;;;;;;2.38;1.73;;;;;;;23.35;33.22;101876.03;5056476;28;20083;-73
2021/05/10 10:24:31;;;;;;;7.60;1.92;;;;;;;24.04;33.31;101862.53;5056437;28;20052;-74
2021/05/10 10:27:24;;;;;;;3.63;1.90;;;;;;;24.01;32.65;101862.69;5056605;28;20115;-74
2021/05/10 10:30:11;;;;;;;5.95;2.20;;;;;;;23.63;32.97;101854.06;5041035;28;20028;-75
2021/05/10 10:32:59;;;;;;;4.75;2.00;;;;;;;22.85;33.64;101850.97;5055827;28;20037;-73
2021/05/10 10:35:49;;;;;;;4.55;2.00;;;;;;;23.61;33.11;101847.03;5056600;28;20119;-76
2021/05/10 10:38:35;;;;;;;6.85;2.67;;;;;;;23.91;33.54;101845.38;5055895;28;20461;-77
2021/05/10 10:41:23;;;;;;;9.95;4.30;;;;;;;23.72;32.75;101840.19;5057102;28;20437;-73
2021/05/10 10:44:31;;;;;;;5.40;3.30;;;;;;;23.78;32.54;101828.28;5042407;28;20029;-74
2021/05/10 10:47:47;;;;;;;14.52;4.05;;;;;;;23.66;32.36;101824.44;5042578;28;20035;-75
2021/05/10 10:50:57;;;;;;;4.80;2.67;;;;;;;24.06;31.85;101840.06;5041794;28;20346;-75
2021/05/10 10:53:55;;;;;;;7.22;3.20;;;;;;;24.71;31.56;101821.16;5055834;28;20432;-75
2021/05/10 10:56:55;;;;;;;14.93;8.00;;;;;;;24.29;32.45;101809.31;5055786;28;20025;-75
2021/05/10 10:59:42;;;;;;;7.60;3.60;;;;;;;24.50;32.64;101826.84;5055887;28;20036;-75
2021/05/10 11:02:39;;;;;;;6.85;2.70;;;;;;;23.94;32.80;101818.50;5057090;28;20370;-75
2021/05/10 11:05:27;;;;;;;9.25;4.03;;;;;;;24.31;32.43;101807.44;5057552;28;20028;-76
2021/05/10 11:08:14;;;;;;;7.05;3.60;;;;;;;24.16;32.52;101794.91;5056003;28;20032;-72
2021/05/10 11:11:00;;;;;;;6.00;2.80;;;;;;;23.81;33.73;101798.63;5041788;28;20053;-74
2021/05/10 11:13:46;;;;;;;6.43;2.22;;;;;;;23.87;33.01;101796.50;5056038;28;20056;-73
2021/05/10 11:16:45;;;;;;;4.07;2.38;;;;;;;24.16;32.74;101800.25;5056122;28;20087;-75
2021/05/10 11:19:38;;;;;;;4.60;1.92;;;;;;;24.59;32.55;101797.69;5056261;28;20017;-74
2021/05/10 11:22:39;;;;;;;3.00;1.90;;;;;;;24.22;32.71;101789.22;5042822;28;20029;-76
2021/05/10 11:25:39;;;;;;;4.30;2.30;;;;;;;24.22;32.35;101775.81;5055549;28;20479;-76
2021/05/10 11:28:25;;;;;;;7.15;2.42;;;;;;;23.61;32.68;101774.78;5056091;28;20458;-76
2021/05/10 11:31:13;;;;;;;6.65;2.40;;;;;;;23.80;32.83;101767.47;5055479;28;20020;-76
2021/05/10 11:33:59;;;;;;;3.42;1.90;;;;;;;24.06;31.95;101769.59;5055550;28;20025;-77
2021/05/10 11:36:50;;;;;;;4.13;1.83;;;;;;;24.53;32.05;101770.41;5041118;28;20471;-76
2021/05/10 11:39:47;;;;;;;2.22;1.80;;;;;;;24.92;31.56;101757.34;5056165;28;20040;-74
2021/05/10 11:42:48;;;;;;;2.47;1.73;;;;;;;25.23;30.97;101755.38;5056240;28;20037;-74
2021/05/10 11:45:44;;;;;;;4.72;1.80;;;;;;;25.34;31.30;101754.75;5056108;28;20033;-74
2021/05/10 11:49:07;;;;;;;5.55;2.05;;;;;;;24.94;31.94;101745.56;5056215;28;20029;-76
2021/05/10 11:51:54;;;;;;;6.63;2.22;;;;;;;24.86;31.43;101736.25;5042055;28;20032;-74
2021/05/10 11:55:03;;;;;;;8.68;2.75;;;;;;;25.26;31.22;101743.59;5040724;28;20036;-73
2021/05/10 11:57:55;;;;;;;4.45;1.70;;;;;;;25.04;30.49;101735.16;5040772;28;20024;-76
2021/05/10 12:00:51;;;;;;;4.10;1.80;;;;;;;24.70;30.52;101738.13;5055133;28;20021;-76
2021/05/10 12:03:37;;;;;;;4.55;1.50;;;;;;;25.16;29.85;101724.50;5055004;28;20036;-76
2021/05/10 12:06:32;;;;;;;7.50;1.88;;;;;;;24.81;29.76;101716.91;5054927;28;20343;-76
2021/05/10 12:09:34;;;;;;;3.05;1.80;;;;;;;25.09;29.23;101722.31;5054926;28;20021;-76
2021/05/10 12:12:22;;;;;;;4.78;1.52;;;;;;;24.16;29.42;101709.19;5054452;28;20061;-76
2021/05/10 12:15:14;;;;;;;2.03;1.60;;;;;;;25.24;30.05;101716.00;5054847;28;20108;-75
2021/05/10 12:18:04;;;;;;;2.53;1.77;;;;;;;24.37;30.98;101706.13;5039374;28;20021;-76
2021/05/10 12:20:50;;;;;;;4.18;1.73;;;;;;;24.79;31.17;101697.38;5054677;28;20025;-76
2021/05/10 12:23:36;;;;;;;2.55;1.50;;;;;;;25.20;29.91;101704.59;5054076;28;20099;-77
2021/05/10 12:26:21;;;;;;;2.70;1.40;;;;;;;25.32;29.97;101698.50;5055063;28;20033;-76
2021/05/10 12:29:07;;;;;;;2.28;1.52;;;;;;;25.51;29.64;101696.38;5054596;28;20029;-76
2021/05/10 12:31:53;;;;;;;3.08;1.38;;;;;;;25.05;29.64;101699.31;5053216;28;20094;-75
2021/05/10 12:34:39;;;;;;;4.05;1.52;;;;;;;25.34;29.35;101699.28;5055202;28;20433;-76
2021/05/10 12:37:25;;;;;;;2.78;1.50;;;;;;;25.87;28.93;101687.75;5054247;28;20035;-76
2021/05/10 12:40:13;;;;;;;2.05;1.50;;;;;;;24.89;30.00;101690.50;5054749;28;20033;-77
2021/05/10 12:43:11;;;;;;;2.83;1.50;;;;;;;25.09;30.09;101688.31;5053071;28;20035;-75
2021/05/10 12:45:57;;;;;;;4.03;1.48;;;;;;;24.77;29.54;101689.44;5054589;28;20025;-76
2021/05/10 12:48:47;;;;;;;3.97;1.50;;;;;;;24.98;30.54;101687.25;5053353;28;20025;-75
2021/05/10 12:51:33;;;;;;;4.65;1.50;;;;;;;24.93;30.29;101675.94;5054194;28;20109;-76
2021/05/10 12:54:19;;;;;;;5.60;1.90;;;;;;;24.86;30.60;101682.63;5055209;28;20107;-74
2021/05/10 12:57:06;;;;;;;4.22;1.85;;;;;;;25.03;30.92;101677.97;5040830;28;20037;-75
2021/05/10 12:59:52;;;;;;;2.60;1.73;;;;;;;24.98;30.46;101674.72;5054414;28;20454;-76
2021/05/10 13:02:43;;;;;;;4.60;1.40;;;;;;;25.14;30.66;101670.13;5053604;28;20098;-75
2021/05/10 13:05:38;;;;;;;5.25;1.65;;;;;;;24.93;31.11;101667.91;5054091;28;20357;-74
2021/05/10 13:08:49;;;;;;;3.50;2.15;;;;;;;25.67;30.96;101666.72;5054093;28;20037;-75